sensor_id;sensor_type;location;lat;lon;timestamp;temperature;humidity
25688;DHT22;17407;51.120;3.702;2024-03-23T00:55:40;10.00;99.90
25688;DHT22;17407;51.120;3.702;2024-03-23T00:58:06;10.00;99.90
25688;DHT22;17407;51.120;3.702;2024-03-23T01:00:31;10.00;99.90
25688;DHT22;17407;51.120;3.702;2024-03-23T01:02:57;10.00;99.90
25688;DHT22;17407;51.120;3.702;2024-03-23T01:05:23;10.00;99.90
25688;DHT22;17407;51.120;3.702;2024-03-23T01:07:48;10.00;99.90
25688;DHT22;17407;51.120;3.702;2024-03-23T01:10:14;10.00;99.90
25688;DHT22;17407;51.120;3.702;2024-03-23T01:12:39;10.00;99.90
25688;DHT22;17407;51.120;3.702;2024-03-23T01:15:05;9.90;99.90
25688;DHT22;17407;51.120;3.702;2024-03-23T01:17:31;9.90;99.90
25688;DHT22;17407;51.120;3.702;2024-03-23T01:19:57;9.90;99.90
25688;DHT22;17407;51.120;3.702;2024-03-23T01:22:23;9.90;99.90
25688;DHT22;17407;51.120;3.702;2024-03-23T01:24:48;9.80;99.90
25688;DHT22;17407;51.120;3.702;2024-03-23T01:27:14;9.80;99.90
25688;DHT22;17407;51.120;3.702;2024-03-23T01:29:40;9.80;99.90
25688;DHT22;17407;51.120;3.702;2024-03-23T01:32:05;9.90;99.90
25688;DHT22;17407;51.120;3.702;2024-03-23T01:34:32;9.70;99.90
25688;DHT22;17407;51.120;3.702;2024-03-23T01:36:58;9.90;99.90
25688;DHT22;17407;51.120;3.702;2024-03-23T01:39:24;9.80;99.90
25688;DHT22;17407;51.120;3.702;2024-03-23T01:41:50;9.70;99.90
25688;DHT22;17407;51.120;3.702;2024-03-23T01:44:15;9.70;99.90
25688;DHT22;17407;51.120;3.702;2024-03-23T01:46:41;9.70;99.90
25688;DHT22;17407;51.120;3.702;2024-03-23T01:49:08;9.80;99.90
25688;DHT22;17407;51.120;3.702;2024-03-23T01:51:34;9.70;99.90
25688;DHT22;17407;51.120;3.702;2024-03-23T01:54:02;9.80;99.90
25688;DHT22;17407;51.120;3.702;2024-03-23T01:56:35;9.70;99.90
25688;DHT22;17407;51.120;3.702;2024-03-23T01:59:07;9.70;99.90
25688;DHT22;17407;51.120;3.702;2024-03-23T02:01:35;9.60;99.90
25688;DHT22;17407;51.120;3.702;2024-03-23T02:04:03;9.50;99.90
25688;DHT22;17407;51.120;3.702;2024-03-23T02:06:29;9.50;99.90
25688;DHT22;17407;51.120;3.702;2024-03-23T02:08:55;9.50;99.90
25688;DHT22;17407;51.120;3.702;2024-03-23T02:11:21;9.50;99.90
25688;DHT22;17407;51.120;3.702;2024-03-23T02:13:46;9.60;99.90
25688;DHT22;17407;51.120;3.702;2024-03-23T02:16:12;9.50;99.90
25688;DHT22;17407;51.120;3.702;2024-03-23T02:18:38;9.40;99.90
25688;DHT22;17407;51.120;3.702;2024-03-23T02:21:04;9.40;99.90
25688;DHT22;17407;51.120;3.702;2024-03-23T02:23:30;9.40;99.90
25688;DHT22;17407;51.120;3.702;2024-03-23T02:25:56;9.40;99.90
25688;DHT22;17407;51.120;3.702;2024-03-23T02:28:21;9.40;99.90
25688;DHT22;17407;51.120;3.702;2024-03-23T02:30:49;9.40;99.90
25688;DHT22;17407;51.120;3.702;2024-03-23T02:33:15;9.30;99.90
25688;DHT22;17407;51.120;3.702;2024-03-23T02:35:40;9.40;99.90
25688;DHT22;17407;51.120;3.702;2024-03-23T02:38:06;9.30;99.90
25688;DHT22;17407;51.120;3.702;2024-03-23T02:40:31;9.40;99.90
25688;DHT22;17407;51.120;3.702;2024-03-23T02:42:57;9.40;99.90
25688;DHT22;17407;51.120;3.702;2024-03-23T02:45:23;9.40;99.90
25688;DHT22;17407;51.120;3.702;2024-03-23T02:47:48;9.40;99.90
25688;DHT22;17407;51.120;3.702;2024-03-23T02:50:20;9.40;99.90
25688;DHT22;17407;51.120;3.702;2024-03-23T02:52:46;9.40;99.90
25688;DHT22;17407;51.120;3.702;2024-03-23T02:55:12;9.40;99.90
25688;DHT22;17407;51.120;3.702;2024-03-23T02:57:38;9.30;99.90
25688;DHT22;17407;51.120;3.702;2024-03-23T03:00:04;9.40;99.90
25688;DHT22;17407;51.120;3.702;2024-03-23T03:02:30;9.40;99.90
25688;DHT22;17407;51.120;3.702;2024-03-23T03:04:56;9.30;99.90
25688;DHT22;17407;51.120;3.702;2024-03-23T03:07:22;9.30;99.90
25688;DHT22;17407;51.120;3.702;2024-03-23T03:09:47;9.30;99.90
25688;DHT22;17407;51.120;3.702;2024-03-23T03:12:13;9.30;99.90
25688;DHT22;17407;51.120;3.702;2024-03-23T03:14:38;9.30;99.90
25688;DHT22;17407;51.120;3.702;2024-03-23T03:17:04;9.30;99.90
25688;DHT22;17407;51.120;3.702;2024-03-23T03:19:30;9.30;99.90
25688;DHT22;17407;51.120;3.702;2024-03-23T03:21:55;9.20;99.90
25688;DHT22;17407;51.120;3.702;2024-03-23T03:24:21;9.30;99.90
25688;DHT22;17407;51.120;3.702;2024-03-23T03:26:47;9.20;99.90
25688;DHT22;17407;51.120;3.702;2024-03-23T03:29:12;9.20;99.90
25688;DHT22;17407;51.120;3.702;2024-03-23T03:31:39;9.20;99.90
25688;DHT22;17407;51.120;3.702;2024-03-23T03:34:04;9.30;99.90
25688;DHT22;17407;51.120;3.702;2024-03-23T03:36:30;9.20;99.90
25688;DHT22;17407;51.120;3.702;2024-03-23T03:38:56;9.20;99.90
25688;DHT22;17407;51.120;3.702;2024-03-23T03:41:21;9.10;99.90
25688;DHT22;17407;51.120;3.702;2024-03-23T03:43:47;9.20;99.90
25688;DHT22;17407;51.120;3.702;2024-03-23T03:46:12;9.10;99.90
25688;DHT22;17407;51.120;3.702;2024-03-23T03:48:38;9.10;99.90
25688;DHT22;17407;51.120;3.702;2024-03-23T03:51:04;9.00;99.90
25688;DHT22;17407;51.120;3.702;2024-03-23T03:53:29;9.20;99.90
25688;DHT22;17407;51.120;3.702;2024-03-23T03:55:56;9.10;99.90
25688;DHT22;17407;51.120;3.702;2024-03-23T03:58:22;9.00;99.90
25688;DHT22;17407;51.120;3.702;2024-03-23T04:00:47;9.00;99.90
25688;DHT22;17407;51.120;3.702;2024-03-23T04:03:13;9.20;99.90
25688;DHT22;17407;51.120;3.702;2024-03-23T04:05:39;9.00;99.90
25688;DHT22;17407;51.120;3.702;2024-03-23T04:08:05;9.10;99.90
25688;DHT22;17407;51.120;3.702;2024-03-23T04:10:31;8.90;99.90
25688;DHT22;17407;51.120;3.702;2024-03-23T04:12:56;8.90;99.90
25688;DHT22;17407;51.120;3.702;2024-03-23T04:15:22;8.80;99.90
25688;DHT22;17407;51.120;3.702;2024-03-23T04:17:48;8.80;99.90
25688;DHT22;17407;51.120;3.702;2024-03-23T04:20:13;8.80;99.90
25688;DHT22;17407;51.120;3.702;2024-03-23T04:22:42;8.80;99.90
25688;DHT22;17407;51.120;3.702;2024-03-23T04:25:08;8.80;99.90
25688;DHT22;17407;51.120;3.702;2024-03-23T04:27:39;8.90;99.90
25688;DHT22;17407;51.120;3.702;2024-03-23T04:30:05;8.70;99.90
25688;DHT22;17407;51.120;3.702;2024-03-23T04:32:39;8.80;99.90
25688;DHT22;17407;51.120;3.702;2024-03-23T04:35:05;8.80;99.90
25688;DHT22;17407;51.120;3.702;2024-03-23T04:37:32;8.80;99.90
25688;DHT22;17407;51.120;3.702;2024-03-23T04:40:00;8.70;99.90
25688;DHT22;17407;51.120;3.702;2024-03-23T04:42:26;8.70;99.90
25688;DHT22;17407;51.120;3.702;2024-03-23T04:44:51;8.70;99.90
25688;DHT22;17407;51.120;3.702;2024-03-23T04:47:17;8.60;99.90
25688;DHT22;17407;51.120;3.702;2024-03-23T04:49:43;8.60;99.90
25688;DHT22;17407;51.120;3.702;2024-03-23T04:52:09;8.70;99.90
25688;DHT22;17407;51.120;3.702;2024-03-23T04:54:35;8.70;99.90
25688;DHT22;17407;51.120;3.702;2024-03-23T04:57:01;8.70;99.90
25688;DHT22;17407;51.120;3.702;2024-03-23T04:59:26;8.80;99.90
25688;DHT22;17407;51.120;3.702;2024-03-23T05:01:52;8.80;99.90
25688;DHT22;17407;51.120;3.702;2024-03-23T05:04:17;8.70;99.90
25688;DHT22;17407;51.120;3.702;2024-03-23T05:06:43;8.70;99.90
25688;DHT22;17407;51.120;3.702;2024-03-23T05:09:09;8.70;99.90
25688;DHT22;17407;51.120;3.702;2024-03-23T05:11:38;8.80;99.90
25688;DHT22;17407;51.120;3.702;2024-03-23T05:14:04;8.70;99.90
25688;DHT22;17407;51.120;3.702;2024-03-23T05:16:29;8.70;99.90
25688;DHT22;17407;51.120;3.702;2024-03-23T05:18:55;8.60;99.90
25688;DHT22;17407;51.120;3.702;2024-03-23T05:21:21;8.50;99.90
25688;DHT22;17407;51.120;3.702;2024-03-23T05:23:46;8.50;99.90
25688;DHT22;17407;51.120;3.702;2024-03-23T05:26:13;8.50;99.90
25688;DHT22;17407;51.120;3.702;2024-03-23T05:28:39;8.70;99.90
25688;DHT22;17407;51.120;3.702;2024-03-23T05:31:04;8.60;99.90
25688;DHT22;17407;51.120;3.702;2024-03-23T05:33:30;8.60;99.90
25688;DHT22;17407;51.120;3.702;2024-03-23T05:36:00;8.70;99.90
25688;DHT22;17407;51.120;3.702;2024-03-23T05:38:26;8.70;99.90
25688;DHT22;17407;51.120;3.702;2024-03-23T05:40:57;8.60;99.90
25688;DHT22;17407;51.120;3.702;2024-03-23T05:43:23;8.70;99.90
25688;DHT22;17407;51.120;3.702;2024-03-23T05:45:59;8.60;99.90
25688;DHT22;17407;51.120;3.702;2024-03-23T05:48:28;8.60;99.90
25688;DHT22;17407;51.120;3.702;2024-03-23T05:50:56;8.70;99.90
25688;DHT22;17407;51.120;3.702;2024-03-23T05:53:22;8.70;99.90
25688;DHT22;17407;51.120;3.702;2024-03-23T05:55:47;8.80;99.90
25688;DHT22;17407;51.120;3.702;2024-03-23T05:58:15;8.70;99.90
25688;DHT22;17407;51.120;3.702;2024-03-23T06:00:40;8.60;99.90
25688;DHT22;17407;51.120;3.702;2024-03-23T06:03:08;8.80;99.90
25688;DHT22;17407;51.120;3.702;2024-03-23T06:05:33;8.80;99.90
25688;DHT22;17407;51.120;3.702;2024-03-23T06:07:59;8.60;99.90
25688;DHT22;17407;51.120;3.702;2024-03-23T06:10:25;8.60;99.90
25688;DHT22;17407;51.120;3.702;2024-03-23T06:12:50;8.70;99.90
25688;DHT22;17407;51.120;3.702;2024-03-23T06:15:18;8.80;99.90
25688;DHT22;17407;51.120;3.702;2024-03-23T06:17:44;8.80;99.90
25688;DHT22;17407;51.120;3.702;2024-03-23T06:20:10;8.60;99.90
25688;DHT22;17407;51.120;3.702;2024-03-23T06:22:36;8.60;99.90
25688;DHT22;17407;51.120;3.702;2024-03-23T06:25:02;8.70;99.90
25688;DHT22;17407;51.120;3.702;2024-03-23T06:27:28;8.70;99.90
25688;DHT22;17407;51.120;3.702;2024-03-23T06:29:54;8.60;99.90
25688;DHT22;17407;51.120;3.702;2024-03-23T06:32:20;8.70;99.90
25688;DHT22;17407;51.120;3.702;2024-03-23T06:34:46;8.60;99.90
25688;DHT22;17407;51.120;3.702;2024-03-23T06:37:12;8.70;99.90
25688;DHT22;17407;51.120;3.702;2024-03-23T06:39:38;8.60;99.90
25688;DHT22;17407;51.120;3.702;2024-03-23T06:42:04;8.60;99.90
25688;DHT22;17407;51.120;3.702;2024-03-23T06:44:29;8.70;99.90
25688;DHT22;17407;51.120;3.702;2024-03-23T06:46:56;8.60;99.90
25688;DHT22;17407;51.120;3.702;2024-03-23T06:49:22;8.70;99.90
25688;DHT22;17407;51.120;3.702;2024-03-23T06:51:48;8.70;99.90
25688;DHT22;17407;51.120;3.702;2024-03-23T06:54:14;8.60;99.90
25688;DHT22;17407;51.120;3.702;2024-03-23T06:56:40;8.60;99.90
25688;DHT22;17407;51.120;3.702;2024-03-23T06:59:06;8.60;99.90
25688;DHT22;17407;51.120;3.702;2024-03-23T07:01:31;8.60;99.90
